Time;durP1;ratioP1;P1;durP2;ratioP2;P2;SDS_P1;SDS_P2;PMS_P1;PMS_P2;Temp;Humidity;BMP_temperature;BMP_pressure;BME280_temperature;BME280_humidity;BME280_pressure;Samples;Min_cycle;Max_cycle;Signal;HPM_P1;HPM_P2
2023/08/30 00:00:17;;;;;;;0.57;0.08;;;17.10;99.90;;;;;;4999400;28;20030;-78
2023/08/30 00:02:46;;;;;;;0.10;0.00;;;16.80;99.90;;;;;;4992279;28;20045;-78
2023/08/30 00:05:11;;;;;;;2.22;0.10;;;16.70;99.90;;;;;;5002611;28;20037;-78
2023/08/30 00:07:37;;;;;;;0.90;0.08;;;16.70;99.90;;;;;;4992810;28;20038;-78
2023/08/30 00:10:03;;;;;;;1.75;0.00;;;16.80;99.90;;;;;;4995958;28;20030;-79
2023/08/30 00:12:29;;;;;;;0.90;0.10;;;16.90;98.80;;;;;;4995281;28;20032;-78
2023/08/30 00:14:56;;;;;;;0.00;0.00;;;17.10;99.90;;;;;;4997269;28;20484;-78
2023/08/30 00:17:22;;;;;;;0.00;0.00;;;17.00;99.40;;;;;;5005659;28;20065;-78
2023/08/30 00:19:48;;;;;;;0.20;0.10;;;17.50;97.80;;;;;;5002955;28;20026;-78
2023/08/30 00:22:14;;;;;;;0.55;0.10;;;17.40;98.30;;;;;;4994663;28;20237;-78
2023/08/30 00:24:40;;;;;;;1.75;0.10;;;17.30;99.30;;;;;;5003179;28;20046;-78
2023/08/30 00:27:06;;;;;;;0.05;0.00;;;17.10;99.70;;;;;;5004830;28;20037;-79
2023/08/30 00:29:31;;;;;;;1.55;0.00;;;17.10;99.00;;;;;;5004547;28;20030;-78
2023/08/30 00:31:57;;;;;;;0.10;0.00;;;17.20;98.90;;;;;;4999806;28;20121;-78
2023/08/30 00:34:23;;;;;;;0.13;0.08;;;17.00;99.90;;;;;;4995073;28;20516;-78
2023/08/30 00:36:48;;;;;;;0.55;0.28;;;17.40;98.00;;;;;;5002490;28;20396;-78
2023/08/30 00:39:14;;;;;;;0.22;0.00;;;17.50;97.60;;;;;;5000666;28;20088;-78
2023/08/30 00:41:40;;;;;;;2.20;0.20;;;17.50;98.00;;;;;;5001998;28;20061;-79
2023/08/30 00:44:06;;;;;;;1.42;0.10;;;17.30;99.50;;;;;;4997262;28;20038;-78
2023/08/30 00:46:33;;;;;;;1.30;0.10;;;17.30;98.70;;;;;;5007161;28;20032;-78
2023/08/30 00:49:00;;;;;;;0.70;0.10;;;17.40;98.80;;;;;;4997693;28;20033;-78
2023/08/30 00:51:26;;;;;;;0.38;0.00;;;17.40;98.70;;;;;;4997899;28;20033;-78
2023/08/30 00:53:54;;;;;;;0.98;0.08;;;17.40;98.00;;;;;;4999494;28;20542;-78
2023/08/30 00:56:20;;;;;;;0.20;0.08;;;17.50;97.90;;;;;;4994209;28;20045;-78
2023/08/30 00:58:48;;;;;;;0.52;0.00;;;17.20;99.50;;;;;;4992098;28;20025;-78
2023/08/30 01:01:16;;;;;;;1.40;0.10;;;17.10;99.20;;;;;;4995972;28;20022;-79
2023/08/30 01:03:41;;;;;;;0.22;0.03;;;17.40;98.70;;;;;;4995039;28;20034;-78
2023/08/30 01:06:07;;;;;;;0.30;0.00;;;17.40;98.70;;;;;;5004122;28;20031;-78
2023/08/30 01:08:35;;;;;;;1.42;0.20;;;17.20;99.70;;;;;;4996880;28;20030;-79
2023/08/30 01:11:20;;;;;;;0.08;0.00;;;17.00;99.60;;;;;;5000333;28;20030;-78
2023/08/30 01:13:51;;;;;;;;;;;17.30;97.90;;;;;;5002119;28;20030;-78
2023/08/30 01:16:20;;;;;;;0.40;0.10;;;17.40;98.20;;;;;;4993584;28;19959;-78
2023/08/30 01:18:46;;;;;;;0.10;0.00;;;17.40;98.50;;;;;;4991031;28;20033;-79
2023/08/30 01:21:26;;;;;;;0.45;0.10;;;17.30;98.50;;;;;;4998034;28;20057;-79
2023/08/30 01:24:18;;;;;;;0.30;0.10;;;17.40;97.90;;;;;;5000235;28;20077;-78
2023/08/30 01:27:20;;;;;;;1.10;0.20;;;17.20;98.70;;;;;;5002272;28;20546;-79
2023/08/30 01:29:46;;;;;;;3.53;0.10;;;17.30;98.70;;;;;;4950477;28;20520;-78
2023/08/30 01:32:13;;;;;;;0.05;0.05;;;17.10;99.40;;;;;;4992427;28;20039;-78
2023/08/30 01:34:41;;;;;;;0.13;0.10;;;17.20;99.20;;;;;;5001889;28;20356;-79
2023/08/30 01:37:08;;;;;;;0.10;0.05;;;17.40;97.60;;;;;;4992416;28;20388;-78
2023/08/30 01:39:36;;;;;;;0.08;0.00;;;17.40;98.30;;;;;;4990078;28;20046;-78
2023/08/30 01:42:03;;;;;;;0.17;0.00;;;17.30;98.40;;;;;;4991808;28;20034;-77
2023/08/30 01:44:31;;;;;;;0.20;0.00;;;17.30;97.90;;;;;;4993296;28;20100;-78
2023/08/30 01:46:58;;;;;;;0.75;0.10;;;17.30;99.20;;;;;;4995238;28;20030;-78
2023/08/30 01:49:25;;;;;;;1.85;0.03;;;17.10;99.90;;;;;;4984387;28;20350;-78
2023/08/30 01:51:52;;;;;;;0.35;0.10;;;17.00;99.90;;;;;;4996862;28;20061;-78
2023/08/30 01:54:18;;;;;;;0.20;0.20;;;16.90;99.90;;;;;;4998918;28;20076;-77
2023/08/30 01:56:45;;;;;;;0.28;0.10;;;16.70;99.90;;;;;;4999441;28;20535;-78
2023/08/30 01:59:11;;;;;;;0.22;0.10;;;16.70;99.90;;;;;;4995895;28;20041;-78
2023/08/30 02:01:37;;;;;;;0.15;0.10;;;16.90;99.70;;;;;;4996350;28;20592;-79
2023/08/30 02:04:03;;;;;;;1.13;0.22;;;16.90;99.90;;;;;;4992730;28;20046;-78
2023/08/30 02:06:55;;;;;;;0.17;0.00;;;17.00;99.60;;;;;;4997870;28;20029;-78
2023/08/30 02:09:36;;;;;;;0.30;0.08;;;17.00;99.30;;;;;;4997639;28;20027;-78
2023/08/30 02:12:07;;;;;;;1.70;0.10;;;16.90;99.90;;;;;;4993551;28;20037;-78
2023/08/30 02:14:33;;;;;;;0.28;0.08;;;16.90;99.90;;;;;;4998289;28;20026;-77
2023/08/30 02:16:59;;;;;;;0.00;0.00;;;16.80;99.90;;;;;;4999205;28;20524;-78
2023/08/30 02:19:25;;;;;;;0.85;0.10;;;16.80;99.90;;;;;;4999423;28;20030;-78
2023/08/30 02:21:51;;;;;;;0.73;0.20;;;16.90;99.90;;;;;;4994061;28;20471;-78
2023/08/30 02:24:17;;;;;;;0.88;0.22;;;16.70;99.90;;;;;;4995760;28;20042;-78
2023/08/30 02:26:43;;;;;;;0.00;0.00;;;16.90;99.30;;;;;;4998934;28;20369;-77
2023/08/30 02:29:09;;;;;;;0.43;0.10;;;16.80;99.90;;;;;;5001797;28;20025;-78
2023/08/30 02:31:35;;;;;;;0.10;0.00;;;16.80;99.90;;;;;;4994668;28;20041;-78
2023/08/30 02:34:02;;;;;;;0.22;0.10;;;16.70;99.90;;;;;;4991253;28;20043;-77
2023/08/30 02:36:27;;;;;;;0.05;0.05;;;16.60;99.90;;;;;;4998710;28;20066;-78
2023/08/30 02:38:53;;;;;;;0.90;0.10;;;16.50;99.90;;;;;;4998645;28;20062;-77
2023/08/30 02:41:19;;;;;;;0.70;0.10;;;16.60;99.90;;;;;;4999441;28;20485;-77
2023/08/30 02:43:44;;;;;;;1.60;0.10;;;16.60;99.90;;;;;;5001322;28;20447;-78
2023/08/30 02:46:10;;;;;;;0.00;0.00;;;16.50;99.90;;;;;;5003639;28;20022;-78
2023/08/30 02:48:36;;;;;;;0.20;0.10;;;17.00;98.40;;;;;;4999075;28;21299;-78
2023/08/30 02:51:01;;;;;;;0.52;0.08;;;17.40;97.90;;;;;;4994407;28;20495;-78
2023/08/30 02:53:27;;;;;;;0.00;0.00;;;17.20;99.20;;;;;;5001416;28;20472;-77
2023/08/30 02:55:55;;;;;;;0.10;0.00;;;16.90;99.90;;;;;;4996217;28;20021;-78
2023/08/30 02:58:21;;;;;;;2.08;0.30;;;16.70;99.90;;;;;;4995429;28;20041;-78
2023/08/30 03:00:47;;;;;;;0.52;0.10;;;16.60;99.90;;;;;;4996200;28;20483;-78
2023/08/30 03:03:12;;;;;;;0.03;0.00;;;16.70;99.90;;;;;;4991407;28;20042;-78
2023/08/30 03:05:38;;;;;;;0.32;0.10;;;16.60;99.90;;;;;;4994986;28;20026;-78
2023/08/30 03:08:04;;;;;;;2.15;0.20;;;16.60;99.90;;;;;;4992663;28;20059;-78
2023/08/30 03:10:30;;;;;;;3.20;0.00;;;16.70;99.90;;;;;;4992094;28;20030;-78
2023/08/30 03:12:55;;;;;;;3.55;0.85;;;16.30;99.90;;;;;;4994175;28;20060;-78
2023/08/30 03:15:21;;;;;;;0.30;0.05;;;16.00;99.90;;;;;;4993532;28;20065;-78
2023/08/30 03:17:47;;;;;;;2.08;0.10;;;16.10;99.90;;;;;;4989528;28;20081;-78
2023/08/30 03:20:12;;;;;;;0.32;0.10;;;16.00;99.90;;;;;;4990104;28;20034;-78
2023/08/30 03:22:38;;;;;;;0.15;0.00;;;16.10;99.90;;;;;;4991230;28;20058;-78
2023/08/30 03:25:04;;;;;;;0.35;0.10;;;16.50;99.80;;;;;;4991132;28;20046;-78
2023/08/30 03:27:32;;;;;;;0.57;0.15;;;16.60;99.90;;;;;;4988682;28;20646;-78
2023/08/30 03:29:58;;;;;;;0.10;0.00;;;16.60;99.90;;;;;;4991163;28;20029;-78
2023/08/30 03:32:23;;;;;;;2.15;0.30;;;16.80;99.70;;;;;;4999833;28;20018;-79
2023/08/30 03:34:49;;;;;;;0.00;0.00;;;16.60;99.90;;;;;;4989679;28;20058;-78
2023/08/30 03:37:15;;;;;;;0.13;0.13;;;16.80;99.40;;;;;;4988709;28;20594;-78
2023/08/30 03:39:42;;;;;;;1.38;0.30;;;16.90;99.30;;;;;;5000062;28;20084;-78
2023/08/30 03:42:07;;;;;;;0.70;0.10;;;16.90;99.40;;;;;;4996170;28;20038;-78
2023/08/30 03:44:33;;;;;;;2.20;0.10;;;16.90;99.20;;;;;;4994857;28;20045;-78
2023/08/30 03:46:59;;;;;;;1.45;0.20;;;17.10;98.60;;;;;;4995479;28;20102;-78
2023/08/30 03:49:25;;;;;;;0.10;0.00;;;16.90;99.80;;;;;;4992995;28;20038;-78
2023/08/30 03:51:50;;;;;;;0.65;0.20;;;16.80;99.40;;;;;;4994340;28;20050;-78
2023/08/30 03:54:16;;;;;;;0.10;0.10;;;16.90;98.80;;;;;;4992129;28;20036;-78
2023/08/30 03:56:45;;;;;;;0.30;0.10;;;17.10;98.30;;;;;;4993119;28;20034;-78
2023/08/30 03:59:14;;;;;;;0.38;0.10;;;17.00;99.90;;;;;;4984797;28;20030;-78
2023/08/30 04:01:39;;;;;;;0.50;0.10;;;17.10;98.80;;;;;;4984065;28;20030;-78
2023/08/30 04:04:05;;;;;;;1.25;0.20;;;17.10;99.20;;;;;;4989468;28;20774;-78
2023/08/30 04:06:31;;;;;;;1.90;0.10;;;17.00;98.60;;;;;;4987969;28;20040;-79
2023/08/30 04:08:57;;;;;;;2.28;0.30;;;17.10;98.70;;;;;;4984271;28;20385;-78
2023/08/30 04:11:23;;;;;;;0.50;0.10;;;17.10;98.40;;;;;;4990501;28;20201;-78
2023/08/30 04:13:49;;;;;;;0.17;0.10;;;16.90;99.70;;;;;;4988149;28;20470;-79
2023/08/30 04:16:14;;;;;;;0.77;0.10;;;16.80;99.70;;;;;;4992064;28;20058;-78
2023/08/30 04:18:40;;;;;;;2.60;0.30;;;16.80;99.80;;;;;;4997517;28;20026;-78
2023/08/30 04:21:08;;;;;;;0.20;0.10;;;16.80;99.90;;;;;;4985198;28;20057;-78
2023/08/30 04:23:33;;;;;;;0.28;0.10;;;16.70;99.90;;;;;;4987945;28;20064;-78
2023/08/30 04:25:59;;;;;;;1.60;0.30;;;16.60;99.90;;;;;;4985572;28;20030;-78
2023/08/30 04:28:26;;;;;;;0.47;0.10;;;16.60;99.90;;;;;;4989500;28;20034;-78
2023/08/30 04:30:54;;;;;;;2.83;0.35;;;16.60;99.90;;;;;;4993392;28;20088;-78
2023/08/30 04:33:20;;;;;;;0.40;0.10;;;16.50;99.90;;;;;;4996575;28;20262;-78
2023/08/30 04:35:54;;;;;;;0.45;0.00;;;16.40;99.90;;;;;;4983370;28;20590;-78
2023/08/30 04:38:20;;;;;;;0.32;0.10;;;16.50;99.90;;;;;;4988730;28;20034;-78
2023/08/30 04:40:46;;;;;;;2.40;0.10;;;16.40;99.90;;;;;;4987557;28;20481;-78
2023/08/30 04:43:12;;;;;;;0.52;0.03;;;16.30;99.90;;;;;;4986670;28;20036;-78
2023/08/30 04:45:37;;;;;;;0.90;0.30;;;16.50;99.90;;;;;;4984182;28;20105;-78
2023/08/30 04:48:04;;;;;;;0.43;0.00;;;16.40;99.90;;;;;;4994291;28;20449;-78
2023/08/30 04:50:30;;;;;;;0.45;0.10;;;16.40;99.90;;;;;;4992813;28;20108;-78
2023/08/30 04:52:57;;;;;;;0.10;0.05;;;16.30;99.90;;;;;;4985665;28;20022;-78
2023/08/30 04:55:25;;;;;;;0.43;0.25;;;16.30;99.90;;;;;;4996139;28;20345;-78
2023/08/30 04:57:51;;;;;;;4.13;0.20;;;16.30;99.90;;;;;;4986278;28;20037;-79
2023/08/30 05:00:18;;;;;;;0.10;0.00;;;16.30;99.90;;;;;;4989961;28;20032;-78
2023/08/30 05:02:46;;;;;;;4.15;0.20;;;16.30;99.90;;;;;;4983994;28;20057;-78
2023/08/30 05:05:12;;;;;;;0.28;0.10;;;16.20;99.90;;;;;;4983929;28;20039;-78
2023/08/30 05:07:38;;;;;;;0.43;0.17;;;16.20;99.90;;;;;;4984702;28;20129;-79
2023/08/30 05:10:04;;;;;;;0.00;0.00;;;16.10;99.90;;;;;;4986326;28;20152;-78
2023/08/30 05:12:30;;;;;;;0.28;0.25;;;16.20;99.90;;;;;;4983856;28;20041;-78
2023/08/30 05:14:56;;;;;;;0.50;0.05;;;16.30;99.90;;;;;;4989187;28;21667;-77
2023/08/30 05:17:21;;;;;;;0.52;0.13;;;16.40;99.90;;;;;;4992653;28;20041;-81
2023/08/30 05:19:47;;;;;;;1.70;0.20;;;16.30;99.90;;;;;;4984249;28;20030;-77
2023/08/30 05:22:13;;;;;;;0.30;0.13;;;16.40;99.90;;;;;;4986061;28;20109;-77
2023/08/30 05:24:39;;;;;;;0.10;0.00;;;16.40;99.90;;;;;;4988700;28;20137;-77
2023/08/30 05:27:05;;;;;;;3.10;0.55;;;16.30;99.90;;;;;;4983921;28;20117;-77
2023/08/30 05:29:30;;;;;;;2.25;0.10;;;16.40;99.90;;;;;;4983214;28;20049;-78
2023/08/30 05:31:56;;;;;;;0.30;0.10;;;16.30;99.90;;;;;;4994065;28;20026;-77
2023/08/30 05:34:23;;;;;;;0.77;0.20;;;16.40;99.90;;;;;;5002202;28;20500;-77
2023/08/30 05:36:49;;;;;;;0.55;0.20;;;16.50;99.90;;;;;;4990439;28;20500;-78
2023/08/30 05:39:15;;;;;;;0.30;0.10;;;16.50;99.90;;;;;;4995471;28;20030;-80
2023/08/30 05:41:43;;;;;;;0.00;0.00;;;16.60;99.90;;;;;;4994746;28;20044;-80
2023/08/30 05:44:09;;;;;;;1.30;0.10;;;16.70;99.90;;;;;;4987857;28;20356;-80
2023/08/30 05:46:35;;;;;;;0.80;0.20;;;16.60;99.90;;;;;;4992633;28;20080;-78
2023/08/30 05:49:02;;;;;;;0.80;0.32;;;16.60;99.90;;;;;;4984541;28;20729;-80
2023/08/30 05:51:28;;;;;;;0.20;0.00;;;16.60;99.90;;;;;;4994579;28;20033;-80
2023/08/30 05:53:54;;;;;;;1.00;0.10;;;16.50;99.90;;;;;;4984425;28;20737;-79
2023/08/30 05:56:20;;;;;;;0.30;0.10;;;16.50;99.90;;;;;;4988663;28;20097;-79
2023/08/30 05:58:46;;;;;;;1.92;0.85;;;16.60;99.90;;;;;;4993760;28;20101;-80
2023/08/30 06:01:11;;;;;;;0.63;0.10;;;16.70;99.90;;;;;;4994264;28;23188;-79
2023/08/30 06:03:37;;;;;;;0.77;0.35;;;16.70;99.90;;;;;;4987832;28;20057;-79
2023/08/30 06:06:03;;;;;;;1.08;0.15;;;16.80;99.90;;;;;;4990310;28;20027;-80
2023/08/30 06:08:29;;;;;;;2.17;0.30;;;16.90;99.90;;;;;;4986461;28;20038;-78
2023/08/30 06:10:54;;;;;;;2.58;0.30;;;16.90;99.90;;;;;;4990588;28;20100;-79
2023/08/30 06:13:20;;;;;;;0.68;0.20;;;16.80;99.90;;;;;;4988898;28;20432;-78
2023/08/30 06:15:50;;;;;;;1.20;0.20;;;16.90;99.90;;;;;;4989095;28;20037;-78
2023/08/30 06:18:16;;;;;;;0.43;0.10;;;16.90;99.90;;;;;;4991047;28;20392;-79
2023/08/30 06:20:42;;;;;;;0.08;0.08;;;17.10;99.90;;;;;;4992669;28;20029;-78
2023/08/30 06:23:07;;;;;;;0.80;0.20;;;17.20;99.90;;;;;;4985967;28;20428;-78
2023/08/30 06:25:33;;;;;;;0.68;0.45;;;17.30;99.90;;;;;;4991326;28;20076;-79
2023/08/30 06:28:01;;;;;;;1.17;0.10;;;17.50;99.90;;;;;;4990541;28;20029;-79
2023/08/30 06:30:30;;;;;;;2.03;0.30;;;17.60;99.90;;;;;;4993228;28;20108;-79
2023/08/30 06:32:57;;;;;;;3.35;0.60;;;17.60;99.90;;;;;;4987331;28;20364;-79
2023/08/30 06:35:23;;;;;;;1.73;0.28;;;17.50;99.90;;;;;;4988352;28;20053;-79
2023/08/30 06:37:49;;;;;;;2.72;0.32;;;17.50;99.90;;;;;;4987233;28;20026;-79
2023/08/30 06:40:15;;;;;;;2.35;0.50;;;17.50;99.90;;;;;;4989180;28;20029;-79
2023/08/30 06:42:40;;;;;;;0.70;0.35;;;17.50;99.90;;;;;;4992876;28;20027;-79
2023/08/30 06:45:06;;;;;;;1.42;0.30;;;17.60;99.90;;;;;;4984917;28;20116;-79
2023/08/30 06:47:32;;;;;;;0.10;0.10;;;17.80;99.90;;;;;;4984994;28;20477;-79
2023/08/30 06:49:59;;;;;;;0.57;0.20;;;18.00;99.90;;;;;;4989639;28;20033;-79
2023/08/30 06:52:24;;;;;;;2.47;0.28;;;18.00;99.90;;;;;;4994273;28;20913;-79
2023/08/30 06:54:50;;;;;;;0.30;0.17;;;18.10;99.90;;;;;;4980503;28;20069;-79
2023/08/30 06:57:16;;;;;;;0.65;0.20;;;18.20;99.90;;;;;;4987149;28;20479;-79
2023/08/30 06:59:42;;;;;;;0.30;0.10;;;18.20;99.90;;;;;;4986127;28;20061;-79
2023/08/30 07:02:08;;;;;;;0.75;0.20;;;18.20;99.90;;;;;;4983653;28;21824;-79
2023/08/30 07:04:34;;;;;;;1.63;0.35;;;18.50;99.90;;;;;;4988638;28;20046;-80
2023/08/30 07:06:59;;;;;;;0.65;0.30;;;19.10;99.90;;;;;;4988920;28;20037;-79
2023/08/30 07:09:28;;;;;;;0.88;0.20;;;19.50;99.90;;;;;;4984100;28;20767;-80
2023/08/30 07:11:55;;;;;;;1.23;0.20;;;19.90;99.30;;;;;;4989452;28;20026;-80
2023/08/30 07:14:21;;;;;;;0.10;0.10;;;19.70;98.70;;;;;;4989018;28;20559;-79
2023/08/30 07:16:49;;;;;;;0.68;0.10;;;19.50;98.60;;;;;;4983669;28;20160;-79
2023/08/30 07:19:15;;;;;;;0.50;0.10;;;19.40;99.50;;;;;;4987491;28;20034;-79
2023/08/30 07:21:42;;;;;;;1.45;0.10;;;19.30;99.20;;;;;;4982579;28;20030;-79
2023/08/30 07:24:08;;;;;;;2.05;0.20;;;19.20;99.30;;;;;;4985103;28;20129;-80
2023/08/30 07:26:33;;;;;;;0.25;0.17;;;19.00;99.70;;;;;;4990471;28;20424;-81
2023/08/30 07:28:59;;;;;;;0.82;0.10;;;18.90;99.60;;;;;;4994976;28;20037;-80
2023/08/30 07:31:25;;;;;;;1.50;0.20;;;18.80;99.20;;;;;;4988976;28;20039;-79
2023/08/30 07:33:50;;;;;;;0.10;0.10;;;18.90;99.30;;;;;;4991544;28;20030;-79
2023/08/30 07:36:16;;;;;;;1.77;0.10;;;18.80;98.40;;;;;;4990263;28;20032;-80
2023/08/30 07:38:42;;;;;;;1.35;0.30;;;18.90;99.20;;;;;;4989221;28;20033;-79
2023/08/30 07:41:08;;;;;;;0.00;0.00;;;19.00;99.90;;;;;;4992665;28;20117;-79
2023/08/30 07:43:33;;;;;;;0.80;0.20;;;19.00;99.90;;;;;;4987772;28;20030;-79
2023/08/30 07:45:59;;;;;;;0.85;0.17;;;19.00;99.90;;;;;;4982365;28;20795;-77
2023/08/30 07:48:25;;;;;;;0.55;0.20;;;19.00;99.90;;;;;;4983686;28;20556;-76
2023/08/30 07:50:50;;;;;;;0.17;0.00;;;19.00;99.20;;;;;;4995546;28;20476;-81
2023/08/30 07:53:16;;;;;;;0.50;0.13;;;18.90;98.10;;;;;;4998508;28;20026;-79
2023/08/30 07:55:42;;;;;;;0.00;0.00;;;19.00;97.60;;;;;;4999706;28;20034;-78
2023/08/30 07:58:10;;;;;;;2.22;0.10;;;19.00;98.40;;;;;;4993051;28;20083;-77
2023/08/30 08:00:36;;;;;;;0.00;0.00;;;19.00;97.40;;;;;;4989438;28;20037;-77
2023/08/30 08:03:02;;;;;;;0.80;0.10;;;19.00;98.30;;;;;;4989327;28;20026;-77
2023/08/30 08:05:27;;;;;;;0.65;0.20;;;19.30;99.20;;;;;;4991472;28;20078;-78
2023/08/30 08:07:53;;;;;;;0.30;0.20;;;19.50;99.90;;;;;;4990296;28;20413;-77
2023/08/30 08:10:20;;;;;;;0.28;0.10;;;19.50;99.90;;;;;;4988631;28;20034;-77
2023/08/30 08:12:45;;;;;;;1.90;0.20;;;19.60;99.90;;;;;;4992816;28;20632;-77
2023/08/30 08:15:11;;;;;;;0.35;0.10;;;19.80;99.90;;;;;;4990743;28;20034;-77
2023/08/30 08:17:37;;;;;;;3.30;0.38;;;19.90;99.10;;;;;;4993960;28;20038;-77
2023/08/30 08:20:05;;;;;;;0.95;0.30;;;19.90;99.90;;;;;;5001871;28;20034;-77
2023/08/30 08:22:31;;;;;;;5.15;0.70;;;19.90;99.90;;;;;;4990583;28;20498;-76
2023/08/30 08:24:57;;;;;;;2.72;0.35;;;19.90;99.90;;;;;;4992223;28;20034;-77
2023/08/30 08:27:25;;;;;;;1.50;0.50;;;19.90;99.90;;;;;;5004152;28;20473;-78
2023/08/30 08:29:51;;;;;;;1.23;0.22;;;19.90;99.50;;;;;;4997870;28;20113;-78
2023/08/30 08:32:16;;;;;;;3.60;0.52;;;19.80;99.40;;;;;;4998419;28;20520;-78
2023/08/30 08:34:42;;;;;;;2.33;0.45;;;20.00;99.40;;;;;;4989574;28;20505;-77
2023/08/30 08:37:08;;;;;;;0.98;0.30;;;20.00;99.90;;;;;;4993744;28;20472;-78
2023/08/30 08:39:34;;;;;;;0.98;0.40;;;20.10;99.90;;;;;;4995210;28;20061;-78
2023/08/30 08:42:01;;;;;;;2.35;0.40;;;20.20;99.90;;;;;;4996854;28;20054;-77
2023/08/30 08:44:31;;;;;;;0.77;0.20;;;20.40;99.90;;;;;;4995576;28;20042;-79
2023/08/30 08:46:57;;;;;;;2.22;0.40;;;20.40;99.90;;;;;;4999340;28;20030;-79
2023/08/30 08:49:28;;;;;;;2.13;0.40;;;20.40;99.70;;;;;;4992429;28;20081;-78
2023/08/30 08:51:54;;;;;;;1.17;0.30;;;20.60;99.90;;;;;;4998888;28;20080;-77
2023/08/30 08:54:20;;;;;;;2.75;0.80;;;20.80;98.70;;;;;;5002770;28;20604;-77
2023/08/30 08:56:46;;;;;;;3.90;0.70;;;20.90;99.50;;;;;;5001755;28;20103;-77
2023/08/30 08:59:12;;;;;;;1.35;0.38;;;21.10;98.50;;;;;;4982400;28;20038;-77
2023/08/30 09:01:41;;;;;;;13.52;3.80;;;21.20;98.00;;;;;;4989779;28;20026;-78
2023/08/30 09:04:08;;;;;;;1.90;0.70;;;21.20;98.20;;;;;;4989784;28;20045;-78
2023/08/30 09:06:34;;;;;;;3.70;0.85;;;21.70;98.20;;;;;;4988697;28;20042;-78
2023/08/30 09:09:03;;;;;;;2.55;0.30;;;21.60;97.40;;;;;;4989664;28;20034;-78
2023/08/30 09:11:29;;;;;;;1.65;0.32;;;21.80;96.20;;;;;;4992581;28;20041;-77
2023/08/30 09:13:55;;;;;;;0.60;0.25;;;21.80;97.20;;;;;;4990824;28;20034;-77
2023/08/30 09:16:21;;;;;;;2.28;0.35;;;22.30;95.50;;;;;;4989475;28;20709;-77
2023/08/30 09:18:58;;;;;;;1.08;0.20;;;21.90;95.40;;;;;;4987608;28;20034;-78
2023/08/30 09:21:23;;;;;;;0.60;0.20;;;21.20;96.50;;;;;;4992187;28;20026;-77
2023/08/30 09:24:06;;;;;;;1.33;0.60;;;21.00;98.40;;;;;;4988218;28;20036;-77
2023/08/30 09:26:34;;;;;;;1.25;0.35;;;20.70;98.80;;;;;;4992400;28;20083;-77
2023/08/30 09:29:08;;;;;;;1.17;0.47;;;20.60;99.90;;;;;;4987857;28;20046;-77
2023/08/30 09:31:39;;;;;;;4.78;0.40;;;20.80;99.50;;;;;;4992112;28;20089;-78
2023/08/30 09:34:05;;;;;;;4.72;1.25;;;20.90;99.90;;;;;;4988251;28;20062;-77
2023/08/30 09:36:50;;;;;;;1.83;0.38;;;20.80;99.70;;;;;;4991233;28;20022;-78
2023/08/30 09:39:16;;;;;;;1.60;0.32;;;20.80;99.90;;;;;;4984060;28;20030;-77
2023/08/30 09:41:43;;;;;;;3.03;0.30;;;20.90;99.60;;;;;;4985284;28;20487;-77
2023/08/30 09:44:12;;;;;;;5.18;0.43;;;21.00;99.40;;;;;;4987973;28;20041;-78
2023/08/30 09:46:54;;;;;;;1.45;0.40;;;21.00;99.00;;;;;;4985551;28;20165;-78
2023/08/30 09:49:22;;;;;;;1.05;0.40;;;21.00;98.80;;;;;;4994703;28;20025;-77
2023/08/30 09:51:49;;;;;;;1.45;0.30;;;21.00;99.90;;;;;;4993604;28;20033;-77
2023/08/30 09:54:19;;;;;;;2.40;0.30;;;20.90;99.10;;;;;;4987736;28;20030;-77
2023/08/30 09:56:47;;;;;;;3.03;0.60;;;20.90;99.60;;;;;;4989517;28;20499;-77
2023/08/30 09:59:14;;;;;;;0.77;0.40;;;21.00;99.70;;;;;;4986030;28;20080;-77
2023/08/30 10:01:41;;;;;;;1.65;0.35;;;21.00;99.50;;;;;;4993228;28;20046;-77
2023/08/30 10:04:09;;;;;;;2.30;0.40;;;21.10;99.70;;;;;;4994758;28;20060;-77
2023/08/30 10:06:38;;;;;;;5.30;0.35;;;21.20;99.00;;;;;;4996581;28;20528;-77
2023/08/30 10:09:07;;;;;;;2.75;0.40;;;21.10;98.70;;;;;;5001859;28;20034;-80
2023/08/30 10:11:35;;;;;;;1.10;0.40;;;21.10;98.70;;;;;;4997595;28;20129;-78
2023/08/30 10:14:06;;;;;;;1.00;0.30;;;21.10;98.40;;;;;;4999521;28;20404;-78
2023/08/30 10:16:52;;;;;;;1.95;0.30;;;21.20;97.90;;;;;;4993045;28;20018;-77
2023/08/30 10:19:26;;;;;;;3.00;0.35;;;21.10;98.10;;;;;;4993898;28;20030;-78
2023/08/30 10:22:08;;;;;;;2.80;0.68;;;21.10;98.50;;;;;;4991830;28;20030;-77
2023/08/30 10:24:42;;;;;;;1.23;0.40;;;21.30;98.50;;;;;;4996556;28;20060;-78
2023/08/30 10:27:10;;;;;;;1.75;0.35;;;21.30;98.00;;;;;;4995218;28;20033;-78
2023/08/30 10:29:37;;;;;;;1.85;0.38;;;21.20;98.00;;;;;;5003541;28;20033;-79
2023/08/30 10:32:04;;;;;;;1.48;0.10;;;21.10;98.10;;;;;;4992964;28;20037;-78
2023/08/30 10:34:33;;;;;;;2.78;0.40;;;21.20;98.30;;;;;;4995705;28;20209;-78
2023/08/30 10:37:02;;;;;;;1.50;0.25;;;21.40;98.00;;;;;;4998307;28;20029;-78
2023/08/30 10:39:35;;;;;;;3.00;0.47;;;21.50;97.30;;;;;;4994144;28;20034;-78
2023/08/30 10:42:11;;;;;;;0.77;0.30;;;21.50;97.40;;;;;;4994277;28;20065;-79
2023/08/30 10:44:50;;;;;;;2.20;0.32;;;21.70;97.50;;;;;;4987602;28;20047;-78
2023/08/30 10:47:29;;;;;;;1.55;0.28;;;21.70;96.50;;;;;;4992546;28;20028;-78
2023/08/30 10:49:56;;;;;;;1.42;0.30;;;21.70;97.40;;;;;;4992621;28;20102;-78
2023/08/30 10:52:22;;;;;;;0.90;0.22;;;21.90;96.90;;;;;;4994204;28;20054;-79
2023/08/30 10:54:50;;;;;;;0.65;0.13;;;21.70;97.30;;;;;;4986925;28;20028;-79
2023/08/30 10:57:24;;;;;;;1.77;0.40;;;21.90;97.60;;;;;;4988287;28;20092;-77
2023/08/30 11:00:07;;;;;;;1.63;0.28;;;22.10;97.90;;;;;;4989149;28;20026;-77
2023/08/30 11:02:33;;;;;;;1.15;0.30;;;22.10;96.40;;;;;;4997748;28;20030;-77
2023/08/30 11:05:00;;;;;;;2.88;0.30;;;22.10;96.80;;;;;;4995861;28;20034;-77
2023/08/30 11:07:26;;;;;;;1.17;0.13;;;21.90;96.30;;;;;;4994859;28;20030;-77
2023/08/30 11:09:52;;;;;;;1.15;0.40;;;22.00;97.10;;;;;;4999015;28;20091;-78
2023/08/30 11:12:22;;;;;;;3.03;0.38;;;22.00;97.80;;;;;;4993456;28;20036;-78
2023/08/30 11:14:48;;;;;;;1.23;0.38;;;22.00;96.70;;;;;;4993032;28;20049;-78
2023/08/30 11:17:16;;;;;;;1.35;0.68;;;22.10;97.60;;;;;;4990913;28;20033;-78
2023/08/30 11:19:42;;;;;;;0.57;0.22;;;22.30;96.40;;;;;;4995428;28;20148;-77
2023/08/30 11:22:08;;;;;;;1.58;0.10;;;22.40;96.70;;;;;;4990840;28;20365;-78
2023/08/30 11:24:34;;;;;;;1.70;0.15;;;22.40;96.10;;;;;;4992850;28;20046;-77
2023/08/30 11:27:00;;;;;;;1.45;0.43;;;22.60;96.40;;;;;;4989901;28;20532;-79
2023/08/30 11:29:29;;;;;;;0.68;0.20;;;22.60;96.40;;;;;;4994587;28;20105;-79
2023/08/30 11:31:55;;;;;;;0.75;0.22;;;22.90;96.40;;;;;;4997782;28;20421;-78
2023/08/30 11:34:24;;;;;;;3.10;0.38;;;22.80;95.20;;;;;;5000780;28;20073;-79
2023/08/30 11:36:50;;;;;;;0.45;0.13;;;23.20;95.70;;;;;;4997835;28;20202;-79
2023/08/30 11:39:17;;;;;;;0.90;0.20;;;23.30;93.60;;;;;;4997374;28;20029;-79
2023/08/30 11:41:43;;;;;;;0.50;0.20;;;23.10;93.70;;;;;;5000928;28;20057;-79
2023/08/30 11:44:09;;;;;;;0.82;0.10;;;23.20;95.00;;;;;;4994950;28;20037;-79
2023/08/30 11:46:35;;;;;;;0.45;0.20;;;23.70;95.20;;;;;;4993150;28;20029;-79
2023/08/30 11:49:02;;;;;;;0.43;0.13;;;23.70;93.80;;;;;;4995992;28;20448;-79
2023/08/30 11:51:29;;;;;;;0.20;0.00;;;24.10;94.00;;;;;;4994468;28;20023;-79
2023/08/30 11:53:56;;;;;;;1.85;0.20;;;24.30;93.30;;;;;;4994927;28;23438;-79
2023/08/30 11:56:23;;;;;;;0.10;0.08;;;24.30;93.20;;;;;;4991007;28;20021;-79
2023/08/30 11:58:49;;;;;;;1.67;0.20;;;23.90;92.80;;;;;;4996737;28;20026;-79
2023/08/30 12:01:15;;;;;;;1.65;0.13;;;23.90;93.90;;;;;;4994135;28;20041;-78
2023/08/30 12:03:41;;;;;;;5.95;1.00;;;23.90;92.90;;;;;;4990048;28;20038;-78
2023/08/30 12:06:12;;;;;;;1.73;0.22;;;23.80;93.40;;;;;;4993671;28;20114;-78
2023/08/30 12:08:38;;;;;;;3.42;0.68;;;23.60;92.50;;;;;;4989214;28;20034;-77
2023/08/30 12:11:04;;;;;;;1.02;0.40;;;23.70;92.70;;;;;;4991895;28;20388;-77
2023/08/30 12:13:33;;;;;;;1.10;0.45;;;23.30;92.10;;;;;;4993903;28;20022;-77
2023/08/30 12:16:01;;;;;;;2.10;0.38;;;23.30;93.30;;;;;;4983105;28;20034;-77
2023/08/30 12:18:32;;;;;;;0.95;0.50;;;23.70;94.60;;;;;;4988099;28;21152;-77
2023/08/30 12:21:02;;;;;;;1.75;0.22;;;24.00;93.10;;;;;;4995176;28;20026;-77
2023/08/30 12:23:30;;;;;;;2.35;0.13;;;24.10;91.40;;;;;;4994418;28;20065;-78
2023/08/30 12:26:03;;;;;;;0.45;0.08;;;24.10;91.90;;;;;;4992086;28;20499;-78
2023/08/30 12:28:30;;;;;;;0.32;0.20;;;24.40;92.10;;;;;;4994450;28;20025;-78
2023/08/30 12:30:56;;;;;;;0.98;0.30;;;24.20;91.20;;;;;;4994985;28;20041;-78
2023/08/30 12:33:22;;;;;;;0.20;0.00;;;24.30;92.30;;;;;;4994722;28;20025;-78
2023/08/30 12:35:48;;;;;;;1.10;0.00;;;24.60;92.30;;;;;;4990883;28;20058;-78
2023/08/30 12:38:17;;;;;;;0.00;0.00;;;24.90;91.80;;;;;;4997170;28;20041;-78
2023/08/30 12:40:47;;;;;;;1.13;0.20;;;24.80;90.40;;;;;;4993437;28;20064;-78
2023/08/30 12:43:14;;;;;;;0.75;0.10;;;24.60;91.70;;;;;;4989461;28;20448;-78
2023/08/30 12:45:40;;;;;;;2.13;0.10;;;24.80;90.80;;;;;;4991838;28;20033;-77
2023/08/30 12:48:07;;;;;;;1.48;0.10;;;24.90;91.70;;;;;;4984602;28;20432;-78